createdAt,value
2023-01-18T00:00:34.122Z,53.13
2023-01-18T00:03:02.093Z,52.87
2023-01-18T00:05:30.012Z,56.23
2023-01-18T00:07:58.002Z,50.23
2023-01-18T00:10:27.347Z,45.17
2023-01-18T00:12:55.561Z,42.27
2023-01-18T00:15:23.759Z,48.20
2023-01-18T00:17:52.576Z,42.43
2023-01-18T00:20:22.981Z,42.47
2023-01-18T00:22:51.554Z,42.50
2023-01-18T00:25:20.453Z,50.57
2023-01-18T00:27:51.417Z,56.27
2023-01-18T00:30:21.697Z,43.70
2023-01-18T00:32:50.181Z,44.30
2023-01-18T00:35:22.203Z,44.03
2023-01-18T00:37:51.622Z,43.30
2023-01-18T00:40:20.323Z,74.90
2023-01-18T00:43:07.044Z,52.07
2023-01-18T00:45:35.095Z,69.90
2023-01-18T00:48:03.435Z,159.40
2023-01-18T00:50:31.646Z,144.03
2023-01-18T00:53:00.455Z,154.63
2023-01-18T00:55:28.834Z,119.37
2023-01-18T00:57:58.154Z,94.30
2023-01-18T01:00:27.066Z,78.67
2023-01-18T01:02:55.474Z,70.27
2023-01-18T01:05:43.890Z,47.67
2023-01-18T01:08:17.429Z,56.03
2023-01-18T01:10:46.512Z,50.50
2023-01-18T01:13:35.427Z,38.83
2023-01-18T01:16:24.194Z,46.00
2023-01-18T01:19:10.047Z,33.67
2023-01-18T01:21:55.659Z,33.23
2023-01-18T01:24:41.088Z,29.13
2023-01-18T01:27:10.622Z,28.33
2023-01-18T01:29:40.435Z,22.77
2023-01-18T01:32:08.470Z,19.90
2023-01-18T01:34:36.978Z,18.10
2023-01-18T01:37:05.512Z,31.30
2023-01-18T01:39:33.443Z,27.37
2023-01-18T01:42:01.376Z,26.47
2023-01-18T01:44:51.351Z,25.30
2023-01-18T01:47:37.733Z,25.30
2023-01-18T01:50:18.482Z,21.07
2023-01-18T01:52:47.923Z,17.63
2023-01-18T01:55:22.967Z,24.03
2023-01-18T01:57:56.460Z,15.60
2023-01-18T02:00:26.228Z,17.57
2023-01-18T02:02:58.002Z,19.63
2023-01-18T02:05:26.776Z,19.23
2023-01-18T02:07:55.316Z,20.70
2023-01-18T02:10:23.291Z,22.07
2023-01-18T02:12:54.691Z,26.13
2023-01-18T02:15:28.518Z,22.93
2023-01-18T02:18:15.169Z,22.00
2023-01-18T02:21:11.487Z,28.17
2023-01-18T02:24:11.764Z,28.77
2023-01-18T02:27:00.170Z,24.37
2023-01-18T02:29:59.458Z,28.93
2023-01-18T02:32:53.835Z,25.83
2023-01-18T02:35:29.746Z,34.17
2023-01-18T02:38:06.569Z,28.07
2023-01-18T02:40:47.350Z,26.50
2023-01-18T02:43:34.534Z,26.67
2023-01-18T02:46:23.478Z,30.03
2023-01-18T02:48:52.439Z,26.43
2023-01-18T02:51:20.359Z,30.20
2023-01-18T02:53:48.966Z,28.63
2023-01-18T02:56:22.598Z,27.73
2023-01-18T02:58:54.771Z,30.63
2023-01-18T03:01:29.092Z,29.90
2023-01-18T03:04:00.283Z,21.67
2023-01-18T03:06:30.692Z,33.73
2023-01-18T03:09:00.919Z,26.87
2023-01-18T03:11:37.616Z,29.07
2023-01-18T03:14:15.385Z,27.77
2023-01-18T03:16:58.938Z,23.53
2023-01-18T03:19:55.879Z,29.97
2023-01-18T03:22:46.591Z,32.13
2023-01-18T03:25:17.080Z,27.57
2023-01-18T03:28:05.878Z,25.30
2023-01-18T03:30:53.108Z,23.63
2023-01-18T03:33:45.063Z,26.77
2023-01-18T03:36:18.836Z,26.37
2023-01-18T03:38:49.633Z,29.73
2023-01-18T03:41:19.633Z,22.90
2023-01-18T03:43:51.080Z,25.03
2023-01-18T03:46:20.368Z,27.30
2023-01-18T03:48:49.767Z,25.97
2023-01-18T03:51:24.722Z,26.47
2023-01-18T03:54:01.385Z,21.93
2023-01-18T03:56:34.141Z,31.50
2023-01-18T03:59:05.691Z,24.13
2023-01-18T04:01:33.822Z,30.50
2023-01-18T04:04:03.577Z,27.77
2023-01-18T04:06:33.253Z,30.13
2023-01-18T04:09:01.191Z,24.37
2023-01-18T04:11:29.141Z,25.70
2023-01-18T04:13:57.130Z,28.77
2023-01-18T04:16:25.280Z,29.63
2023-01-18T04:18:53.461Z,23.13
2023-01-18T04:21:22.854Z,24.13
2023-01-18T04:23:50.869Z,25.67
2023-01-18T04:26:19.363Z,27.17
2023-01-18T04:28:47.315Z,31.50
2023-01-18T04:31:15.412Z,27.93
2023-01-18T04:33:43.368Z,24.13
2023-01-18T04:36:11.388Z,22.87
2023-01-18T04:38:40.740Z,26.40
2023-01-18T04:41:08.913Z,25.60
2023-01-18T04:43:36.805Z,28.97
2023-01-18T04:46:05.140Z,29.50
2023-01-18T04:48:33.080Z,27.57
2023-01-18T04:51:01.006Z,21.37
2023-01-18T04:53:29.020Z,18.30
2023-01-18T04:55:58.856Z,24.50
2023-01-18T04:58:26.784Z,19.73
2023-01-18T05:00:54.784Z,30.13
2023-01-18T05:03:22.734Z,31.07
2023-01-18T05:05:50.682Z,32.03
2023-01-18T05:08:18.818Z,34.97
2023-01-18T05:10:46.963Z,32.73
2023-01-18T05:13:16.244Z,33.40
2023-01-18T05:15:44.181Z,25.57
2023-01-18T05:18:12.389Z,34.90
2023-01-18T05:20:40.338Z,44.00
2023-01-18T05:23:11.059Z,29.37
2023-01-18T05:25:40.238Z,25.57
2023-01-18T05:28:09.164Z,30.10
2023-01-18T05:30:42.311Z,23.80
2023-01-18T05:33:10.825Z,24.83
2023-01-18T05:35:38.764Z,24.57
2023-01-18T05:38:06.690Z,25.40
2023-01-18T05:40:34.630Z,24.43
2023-01-18T05:43:02.594Z,25.67
2023-01-18T05:45:30.564Z,29.50
2023-01-18T05:48:00.000Z,29.17
2023-01-18T05:50:28.075Z,28.37
2023-01-18T05:52:57.990Z,28.33
2023-01-18T05:55:26.170Z,24.13
2023-01-18T05:57:54.201Z,25.90
2023-01-18T06:00:22.899Z,22.00
2023-01-18T06:02:50.827Z,27.37
2023-01-18T06:05:20.765Z,27.07
2023-01-18T06:07:49.000Z,27.40
2023-01-18T06:10:17.796Z,28.37
2023-01-18T06:12:46.242Z,43.37
2023-01-18T06:15:15.725Z,58.33
2023-01-18T06:17:45.932Z,38.13
2023-01-18T06:20:14.946Z,31.33
2023-01-18T06:22:45.614Z,32.67
2023-01-18T06:25:13.646Z,29.23
2023-01-18T06:27:42.122Z,25.70
2023-01-18T06:30:11.976Z,27.63
2023-01-18T06:32:39.907Z,25.07
2023-01-18T06:35:08.693Z,28.87
2023-01-18T06:37:36.642Z,26.77
2023-01-18T06:40:07.503Z,24.67
2023-01-18T06:42:35.555Z,27.80
2023-01-18T06:45:03.646Z,26.40
2023-01-18T06:47:31.599Z,28.03
2023-01-18T06:49:59.553Z,37.07
2023-01-18T06:52:27.656Z,33.63
2023-01-18T06:54:55.617Z,34.20
2023-01-18T06:57:24.931Z,32.00
2023-01-18T06:59:53.447Z,35.17
2023-01-18T07:02:21.815Z,33.03
2023-01-18T07:04:49.761Z,31.33
2023-01-18T07:07:17.741Z,30.50
2023-01-18T07:09:45.679Z,29.90
2023-01-18T07:12:13.603Z,30.90
2023-01-18T07:14:43.287Z,36.77
2023-01-18T07:17:11.482Z,28.40
2023-01-18T07:19:39.415Z,29.43
2023-01-18T07:22:07.608Z,27.67
2023-01-18T07:24:35.783Z,34.73
2023-01-18T07:27:03.754Z,44.03
2023-01-18T07:29:31.996Z,37.90
2023-01-18T07:32:02.473Z,37.43
2023-01-18T07:34:30.435Z,38.60
2023-01-18T07:36:58.463Z,38.47
2023-01-18T07:39:26.381Z,33.80
2023-01-18T07:41:54.278Z,37.57
2023-01-18T07:44:22.197Z,32.97
2023-01-18T07:46:50.133Z,36.37
2023-01-18T07:49:19.549Z,35.80
2023-01-18T07:51:47.598Z,32.27
2023-01-18T07:54:17.102Z,34.03
2023-01-18T07:56:45.048Z,37.87
2023-01-18T07:59:12.996Z,39.07
2023-01-18T08:01:41.000Z,41.20
2023-01-18T08:04:09.354Z,37.93
2023-01-18T08:06:38.641Z,55.60
2023-01-18T08:09:06.793Z,40.47
2023-01-18T08:11:34.720Z,41.77
2023-01-18T08:14:02.654Z,41.80
2023-01-18T08:16:30.737Z,42.67
2023-01-18T08:18:58.653Z,37.93
2023-01-18T08:21:26.556Z,43.50
2023-01-18T08:23:56.101Z,48.27
2023-01-18T08:26:24.027Z,55.10
2023-01-18T08:28:51.950Z,59.13
2023-01-18T08:31:21.779Z,75.63
2023-01-18T08:33:51.019Z,78.53
2023-01-18T08:36:22.135Z,53.70
2023-01-18T08:38:51.273Z,37.57
2023-01-18T08:41:21.469Z,40.27
2023-01-18T08:43:50.955Z,44.17
2023-01-18T08:46:19.284Z,81.37
2023-01-18T08:48:50.420Z,65.47
2023-01-18T08:51:19.115Z,52.17
2023-01-18T08:53:48.380Z,42.03
2023-01-18T08:56:16.392Z,36.63
2023-01-18T08:58:46.185Z,37.77
2023-01-18T09:01:14.678Z,35.07
2023-01-18T09:03:43.109Z,34.53
2023-01-18T09:06:13.006Z,33.20
2023-01-18T09:08:41.242Z,30.17
2023-01-18T09:11:11.789Z,31.40
2023-01-18T09:13:58.553Z,32.90
2023-01-18T09:16:29.365Z,35.67
2023-01-18T09:18:58.403Z,31.77
2023-01-18T09:21:28.108Z,32.07
2023-01-18T09:23:56.085Z,31.67
2023-01-18T09:26:24.022Z,33.10
2023-01-18T09:28:54.219Z,36.43
2023-01-18T09:31:24.375Z,37.77
2023-01-18T09:33:54.402Z,32.33
2023-01-18T09:36:26.768Z,30.23
2023-01-18T09:38:55.931Z,38.37
2023-01-18T09:41:32.043Z,36.70
2023-01-18T09:44:03.480Z,42.23
2023-01-18T09:46:37.093Z,41.37
2023-01-18T09:49:16.250Z,49.50
2023-01-18T09:51:53.630Z,45.23
2023-01-18T09:54:33.555Z,36.53
2023-01-18T09:57:08.767Z,41.57
2023-01-18T09:59:43.054Z,36.43
2023-01-18T10:02:18.616Z,38.13
2023-01-18T10:04:53.542Z,33.00
2023-01-18T10:07:23.291Z,34.53
2023-01-18T10:09:55.323Z,30.70
2023-01-18T10:12:31.002Z,27.10
2023-01-18T10:15:03.466Z,29.37
2023-01-18T10:17:36.771Z,32.67
2023-01-18T10:20:14.967Z,50.27
2023-01-18T10:22:50.860Z,41.77
2023-01-18T10:25:31.836Z,33.97
2023-01-18T10:28:26.611Z,37.63
2023-01-18T10:31:03.790Z,28.43
2023-01-18T10:33:37.473Z,38.37
2023-01-18T10:36:12.842Z,39.53
2023-01-18T10:38:41.933Z,49.67
2023-01-18T10:41:19.098Z,37.43
2023-01-18T10:43:47.248Z,22.73
2023-01-18T10:46:17.386Z,27.77
2023-01-18T10:48:47.549Z,26.53
2023-01-18T10:51:30.234Z,31.43
2023-01-18T10:53:58.537Z,20.40
2023-01-18T10:56:28.130Z,21.13
2023-01-18T10:58:58.783Z,20.67
2023-01-18T11:01:28.632Z,23.60
2023-01-18T11:04:05.913Z,21.70
2023-01-18T11:06:46.658Z,20.17
2023-01-18T11:09:41.032Z,19.57
2023-01-18T11:12:37.290Z,25.13
2023-01-18T11:15:25.375Z,16.03
2023-01-18T11:18:12.039Z,17.07
2023-01-18T11:20:46.221Z,18.30
2023-01-18T11:23:25.372Z,20.57
2023-01-18T11:26:00.707Z,18.57
2023-01-18T11:28:34.720Z,17.87
2023-01-18T11:31:09.436Z,23.70
2023-01-18T11:33:43.055Z,38.73
2023-01-18T11:36:11.062Z,25.40
2023-01-18T11:38:41.487Z,15.07
2023-01-18T11:41:16.252Z,17.93
2023-01-18T11:43:56.145Z,16.87
2023-01-18T11:46:44.367Z,29.70
2023-01-18T11:49:27.014Z,26.33
2023-01-18T11:52:02.055Z,21.20
2023-01-18T11:54:37.659Z,21.03
2023-01-18T11:57:10.202Z,21.73
2023-01-18T11:59:41.829Z,27.30
2023-01-18T12:02:37.452Z,20.23
2023-01-18T12:05:22.582Z,27.07
2023-01-18T12:08:01.026Z,23.73
2023-01-18T12:10:42.877Z,21.40
2023-01-18T12:13:29.932Z,23.63
2023-01-18T12:16:08.126Z,18.03
2023-01-18T12:19:01.967Z,19.53
2023-01-18T12:21:41.032Z,18.97
2023-01-18T12:24:34.759Z,21.07
2023-01-18T12:27:13.378Z,25.50
2023-01-18T12:30:01.902Z,18.33
2023-01-18T12:32:50.322Z,19.47
2023-01-18T12:35:30.522Z,16.27
2023-01-18T12:38:05.790Z,18.77
2023-01-18T12:40:45.141Z,25.57
2023-01-18T12:43:31.169Z,19.73
2023-01-18T12:46:06.991Z,21.47
2023-01-18T12:48:42.635Z,28.30
2023-01-18T12:51:15.388Z,26.63
2023-01-18T12:53:46.243Z,23.60
2023-01-18T12:56:18.109Z,29.67
2023-01-18T12:58:52.745Z,25.40
2023-01-18T13:01:22.616Z,22.17
2023-01-18T13:03:54.140Z,22.00
2023-01-18T13:06:22.583Z,19.73
2023-01-18T13:08:59.607Z,31.70
2023-01-18T13:11:31.497Z,33.73
2023-01-18T13:14:11.156Z,24.93
2023-01-18T13:16:47.056Z,25.10
2023-01-18T13:19:20.425Z,23.97
2023-01-18T13:22:00.147Z,23.00
2023-01-18T13:24:44.467Z,28.87
2023-01-18T13:27:15.014Z,68.63
2023-01-18T13:29:45.013Z,24.27
2023-01-18T13:32:30.340Z,18.73
2023-01-18T13:35:18.623Z,23.23
2023-01-18T13:37:50.304Z,34.17
2023-01-18T13:40:24.200Z,23.03
2023-01-18T13:42:52.495Z,27.53
2023-01-18T13:45:23.664Z,20.33
2023-01-18T13:48:01.041Z,19.37
2023-01-18T13:50:57.432Z,19.67
2023-01-18T13:53:26.921Z,23.73
2023-01-18T13:56:34.444Z,30.73
2023-01-18T13:59:05.548Z,38.33
2023-01-18T14:01:38.458Z,38.13
2023-01-18T14:04:16.241Z,35.97
2023-01-18T14:06:46.577Z,78.67
2023-01-18T14:09:18.350Z,66.30
2023-01-18T14:11:53.554Z,57.33
2023-01-18T14:14:27.644Z,47.23
2023-01-18T14:17:00.076Z,33.47
2023-01-18T14:19:29.450Z,31.37
2023-01-18T14:22:27.053Z,24.47
2023-01-18T14:25:22.053Z,27.93
2023-01-18T14:27:59.573Z,24.00
2023-01-18T14:30:30.728Z,51.10
2023-01-18T14:33:03.716Z,43.20
2023-01-18T14:35:31.775Z,41.80
2023-01-18T14:38:17.415Z,34.27
2023-01-18T14:40:48.483Z,35.23
2023-01-18T14:43:22.480Z,45.90
2023-01-18T14:45:57.494Z,33.07
2023-01-18T14:48:27.730Z,26.40
2023-01-18T14:50:56.729Z,27.27
2023-01-18T14:53:28.018Z,45.07
2023-01-18T14:56:09.293Z,28.53
2023-01-18T14:58:40.451Z,32.43
2023-01-18T15:01:10.271Z,33.70
2023-01-18T15:03:39.810Z,24.30
2023-01-18T15:06:14.437Z,34.37
2023-01-18T15:08:44.797Z,85.70
2023-01-18T15:11:13.602Z,49.97
2023-01-18T15:13:49.507Z,32.33
2023-01-18T15:16:21.288Z,41.47
2023-01-18T15:18:52.678Z,33.80
2023-01-18T15:21:23.786Z,32.43
2023-01-18T15:23:53.701Z,37.57
2023-01-18T15:26:36.250Z,38.90
2023-01-18T15:29:13.766Z,41.33
2023-01-18T15:31:54.660Z,37.20
2023-01-18T15:34:29.548Z,38.37
2023-01-18T15:36:59.563Z,30.27
2023-01-18T15:39:28.206Z,41.37
2023-01-18T15:41:58.007Z,42.23
2023-01-18T15:44:41.824Z,37.57
2023-01-18T15:47:18.128Z,27.87
2023-01-18T15:49:49.671Z,27.03
2023-01-18T15:52:34.818Z,34.20
2023-01-18T15:55:06.649Z,31.37
2023-01-18T15:57:36.465Z,30.93
2023-01-18T16:00:06.063Z,30.83
2023-01-18T16:02:34.159Z,29.10
2023-01-18T16:05:22.226Z,23.37
2023-01-18T16:07:53.279Z,27.27
2023-01-18T16:10:30.631Z,42.80
2023-01-18T16:13:37.324Z,41.87
2023-01-18T16:16:18.766Z,37.93
2023-01-18T16:18:49.435Z,44.93
2023-01-18T16:21:27.508Z,38.50
2023-01-18T16:23:57.786Z,38.90
2023-01-18T16:26:30.310Z,54.90
2023-01-18T16:29:07.601Z,47.20
2023-01-18T16:31:36.391Z,46.00
2023-01-18T16:34:20.261Z,44.43
2023-01-18T16:36:50.372Z,42.00
2023-01-18T16:39:18.919Z,37.57
2023-01-18T16:41:53.607Z,42.33
2023-01-18T16:44:22.040Z,44.20
2023-01-18T16:46:50.652Z,26.93
2023-01-18T16:49:18.615Z,21.00
2023-01-18T16:51:47.512Z,25.97
2023-01-18T16:54:16.782Z,19.40
2023-01-18T16:56:45.998Z,22.60
2023-01-18T16:59:17.915Z,20.30
2023-01-18T17:01:46.767Z,23.43
2023-01-18T17:04:15.104Z,22.40
2023-01-18T17:06:44.170Z,21.60
2023-01-18T17:09:20.371Z,21.40
2023-01-18T17:11:48.437Z,23.17
2023-01-18T17:14:16.444Z,35.00
2023-01-18T17:16:45.251Z,39.90
2023-01-18T17:19:14.528Z,24.93
2023-01-18T17:21:43.721Z,28.00
2023-01-18T17:24:12.836Z,19.03
2023-01-18T17:26:42.820Z,20.17
2023-01-18T17:29:17.459Z,19.30
2023-01-18T17:31:52.177Z,19.37
2023-01-18T17:34:27.268Z,18.63
2023-01-18T17:36:57.389Z,17.47
2023-01-18T17:39:32.160Z,19.43
2023-01-18T17:42:18.974Z,21.13
2023-01-18T17:45:02.304Z,17.73
2023-01-18T17:47:30.541Z,20.27
2023-01-18T17:49:58.501Z,20.37
2023-01-18T17:52:27.299Z,19.60
2023-01-18T17:54:55.255Z,21.17
2023-01-18T17:57:24.560Z,21.53
2023-01-18T17:59:55.667Z,24.67
2023-01-18T18:02:24.385Z,24.13
2023-01-18T18:04:52.670Z,22.77
2023-01-18T18:07:20.627Z,21.80
2023-01-18T18:09:48.536Z,22.73
2023-01-18T18:12:16.497Z,26.13
2023-01-18T18:14:45.779Z,22.87
2023-01-18T18:17:13.735Z,22.43
2023-01-18T18:19:41.688Z,26.27
2023-01-18T18:22:09.703Z,29.30
2023-01-18T18:24:37.599Z,24.07
2023-01-18T18:27:05.640Z,26.53
2023-01-18T18:29:33.661Z,18.90
2023-01-18T18:32:05.314Z,18.67
2023-01-18T18:34:33.365Z,25.13
2023-01-18T18:37:01.496Z,24.50
2023-01-18T18:39:29.398Z,25.17
2023-01-18T18:41:57.588Z,23.57
2023-01-18T18:44:25.572Z,21.37
2023-01-18T18:46:53.502Z,24.00
2023-01-18T18:49:22.796Z,23.80
2023-01-18T18:51:50.821Z,22.87
2023-01-18T18:54:18.776Z,22.97
2023-01-18T18:56:46.961Z,22.47
2023-01-18T18:59:14.929Z,26.23
2023-01-18T19:01:42.924Z,24.53
2023-01-18T19:04:11.085Z,27.37
2023-01-18T19:06:40.636Z,33.33
2023-01-18T19:09:08.554Z,29.27
2023-01-18T19:11:39.458Z,33.67
2023-01-18T19:14:07.609Z,31.03
2023-01-18T19:16:36.845Z,39.97
2023-01-18T19:19:04.925Z,36.60
2023-01-18T19:21:33.524Z,37.30
2023-01-18T19:24:02.855Z,40.20
2023-01-18T19:26:30.872Z,40.63
2023-01-18T19:28:58.809Z,38.53
2023-01-18T19:31:26.895Z,42.37
2023-01-18T19:33:56.364Z,37.40
2023-01-18T19:36:24.313Z,36.00
2023-01-18T19:38:59.350Z,36.53
2023-01-18T19:41:30.536Z,43.60
2023-01-18T19:43:58.492Z,43.30
2023-01-18T19:46:26.684Z,40.43
2023-01-18T19:48:58.204Z,40.73
2023-01-18T19:51:27.276Z,41.47
2023-01-18T19:53:56.317Z,38.83
2023-01-18T19:56:25.699Z,42.53
2023-01-18T19:58:55.026Z,36.57
2023-01-18T20:01:35.865Z,34.83
2023-01-18T20:04:05.184Z,38.10
2023-01-18T20:06:33.252Z,40.70
2023-01-18T20:09:01.252Z,35.57
2023-01-18T20:11:29.718Z,34.30
2023-01-18T20:13:58.982Z,33.63
2023-01-18T20:16:28.359Z,34.40
2023-01-18T20:18:56.352Z,33.33
2023-01-18T20:21:24.609Z,31.67
2023-01-18T20:23:55.947Z,31.53
2023-01-18T20:26:35.090Z,32.63
2023-01-18T20:29:06.720Z,30.83
2023-01-18T20:31:36.245Z,33.73
2023-01-18T20:34:04.780Z,45.13
2023-01-18T20:36:34.802Z,40.83
2023-01-18T20:39:03.511Z,37.30
2023-01-18T20:41:31.630Z,39.23
2023-01-18T20:43:59.570Z,35.23
2023-01-18T20:46:29.043Z,38.70
2023-01-18T20:48:56.975Z,38.90
2023-01-18T20:51:24.904Z,35.77
2023-01-18T20:53:52.862Z,35.03
2023-01-18T20:56:29.348Z,35.10
2023-01-18T20:58:57.946Z,35.37
2023-01-18T21:01:31.640Z,36.43
2023-01-18T21:04:02.352Z,32.90
2023-01-18T21:06:31.348Z,49.63
2023-01-18T21:09:01.211Z,185.37
2023-01-18T21:11:29.543Z,77.00
2023-01-18T21:14:00.052Z,55.43
2023-01-18T21:16:28.610Z,46.73
2023-01-18T21:18:58.714Z,43.63
2023-01-18T21:21:31.680Z,41.37
2023-01-18T21:24:00.218Z,41.77
2023-01-18T21:26:28.375Z,53.10
2023-01-18T21:28:56.721Z,43.83
2023-01-18T21:31:24.694Z,50.63
2023-01-18T21:33:52.910Z,34.77
2023-01-18T21:36:22.867Z,39.00
2023-01-18T21:38:52.488Z,38.20
2023-01-18T21:41:38.078Z,39.23
2023-01-18T21:44:24.203Z,33.80
2023-01-18T21:46:53.218Z,40.60
2023-01-18T21:50:01.182Z,47.47
2023-01-18T21:52:45.671Z,37.40
2023-01-18T21:55:16.330Z,32.80
2023-01-18T21:57:44.392Z,40.23
2023-01-18T22:00:13.566Z,38.67
2023-01-18T22:02:41.510Z,38.53
2023-01-18T22:05:10.004Z,37.03
2023-01-18T22:07:37.948Z,36.03
2023-01-18T22:10:07.338Z,49.30
2023-01-18T22:12:39.074Z,36.63
2023-01-18T22:15:07.861Z,32.87
2023-01-18T22:17:35.815Z,32.80
2023-01-18T22:20:04.575Z,28.63
2023-01-18T22:22:32.507Z,25.37
2023-01-18T22:25:02.271Z,31.03
2023-01-18T22:27:30.409Z,31.30
2023-01-18T22:30:00.105Z,30.33
2023-01-18T22:32:28.053Z,24.57
2023-01-18T22:34:55.979Z,29.53
2023-01-18T22:37:26.006Z,28.63
2023-01-18T22:39:54.007Z,24.20
2023-01-18T22:42:22.000Z,30.63
2023-01-18T22:44:49.890Z,22.17
2023-01-18T22:47:19.160Z,27.07
2023-01-18T22:49:47.230Z,28.40
2023-01-18T22:52:15.173Z,29.97
2023-01-18T22:54:43.139Z,26.23
2023-01-18T22:57:11.266Z,23.43
2023-01-18T22:59:39.219Z,30.23
2023-01-18T23:02:07.171Z,28.43
2023-01-18T23:04:36.516Z,26.90
2023-01-18T23:07:04.585Z,26.50
2023-01-18T23:09:32.499Z,24.67
2023-01-18T23:12:00.417Z,26.60
2023-01-18T23:14:44.912Z,30.87
2023-01-18T23:17:31.906Z,25.17
2023-01-18T23:20:01.174Z,28.20
2023-01-18T23:22:29.146Z,28.43
2023-01-18T23:24:57.062Z,39.77
2023-01-18T23:27:25.050Z,50.90
2023-01-18T23:29:57.243Z,64.40
2023-01-18T23:32:28.007Z,55.37
2023-01-18T23:34:56.135Z,36.23
2023-01-18T23:37:26.126Z,31.20
2023-01-18T23:40:11.694Z,37.20
2023-01-18T23:42:57.410Z,33.40
2023-01-18T23:45:43.027Z,36.77
2023-01-18T23:48:30.910Z,34.60
2023-01-18T23:51:17.876Z,35.60
2023-01-18T23:54:05.017Z,34.37
2023-01-18T23:56:33.135Z,31.77
2023-01-18T23:59:01.266Z,32.40
